Time;durP1;ratioP1;P1;durP2;ratioP2;P2;SDS_P1;SDS_P2;PMS_P1;PMS_P2;Temp;Humidity;BMP_temperature;BMP_pressure;BME280_temperature;BME280_humidity;BME280_pressure;Samples;Min_cycle;Max_cycle;Signal;HPM_P1;HPM_P2
2021/03/12 11:10:19;;;;;;;;;;;;;;;;;;1561317;28;83577;-89
2021/03/12 11:11:05;;;;;;;;;;;;;;;;;;1554047;28;84786;-90
2021/03/12 11:12:02;;;;;;;;;;;;;;;;;;1554833;28;85763;-93
2021/03/12 11:12:47;;;;;;;;;;;;;;;;;;1552391;28;84056;-92
2021/03/12 11:13:45;;;;;;;;;;;;;;;;;;1545795;28;85072;-92
2021/03/12 11:14:34;;;;;;;;;;;;;;;;;;1554053;28;86503;-89
2021/03/12 11:15:21;;;;;;;;;;;;;;;;;;1552309;28;84234;-90
2021/03/12 11:16:06;;;;;;;;;;;;;;;;;;1547040;28;85690;-89
2021/03/12 11:17:02;;;;;;;;;;;;;;;;;;1551961;28;84702;-90
2021/03/12 11:17:56;;;;;;;;;;;;;;;;;;1552892;28;84929;-91
2021/03/12 11:18:47;;;;;;;;;;;;;;;;;;1550107;28;83889;-91
2021/03/12 11:19:41;;;;;;;;;;;;;;;;;;1555633;28;85759;-90
2021/03/12 11:20:28;;;;;;;;;;;;;;;;;;1553542;28;86141;-89
2021/03/12 11:21:21;;;;;;;;;;;;;;;;;;1546124;28;84868;-89
2021/03/12 11:22:09;;;;;;;;;;;;;;;;;;1552666;28;84863;-89
2021/03/12 11:23:59;;;;;;;;;;;;;;;;;;1550684;28;83212;-90
2021/03/12 11:24:44;;;;;;;;;;;;;;;;;;1547993;28;84793;-90
2021/03/12 11:25:29;;;;;;;;;;;;;;;;;;1543396;28;83989;-90
2021/03/12 11:26:15;;;;;;;;;;;;;;;;;;1545889;28;84266;-90
2021/03/12 11:27:08;;;;;;;;;;;;;;;;;;1555858;28;83279;-91
2021/03/12 11:27:59;;;;;;;;;;;;;;;;;;1549382;28;84837;-92
2021/03/12 11:30:04;;;;;;;;;;;;;;;;;;1551930;28;84336;-91
2021/03/12 11:31:59;;;;;;;;;;;;;;;;;;1547448;28;83588;-91
2021/03/12 11:32:44;;;;;;;;;;;;;;;;;;1532032;28;86437;-90
2021/03/12 11:33:32;;;;;;;;;;;;;;;;;;1539479;28;85327;-90
2021/03/12 11:34:17;;;;;;;;;;;;;;;;;;1548133;28;84852;-89
2021/03/12 11:35:02;;;;;;;;;;;;;;;;;;1541082;28;85955;-89
2021/03/12 11:35:47;;;;;;;;;;;;;;;;;;1535260;28;84136;-88
2021/03/12 11:36:33;;;;;;;;;;;;;;;;;;1539396;28;86138;-89
2021/03/12 11:37:18;;;;;;;;;;;;;;;;;;1545959;28;85666;-89
2021/03/12 11:38:03;;;;;;;;;;;;;;;;;;1541435;28;85479;-90
2021/03/12 11:38:48;;;;;;;;;;;;;;;;;;1535524;28;85967;-90
2021/03/12 11:39:33;;;;;;;;;;;;;;;;;;1537177;28;85187;-89
2021/03/12 11:40:18;;;;;;;;;;;;;;;;;;1538993;28;86811;-89
2021/03/12 11:41:03;;;;;;;;;;;;;;;;;;1535194;28;85698;-90
2021/03/12 11:41:49;;;;;;;;;;;;;;;;;;1537521;28;85858;-89
2021/03/12 11:42:34;;;;;;;;;;;;;;;;;;1539613;28;85016;-89
2021/03/12 11:43:19;;;;;;;;;;;;;;;;;;1534626;28;84235;-94
2021/03/12 11:44:04;;;;;;;;;;;;;;;;;;1526821;28;83867;-93
2021/03/12 11:44:49;;;;;;;;;;;;;;;;;;1535706;28;83947;-93
2021/03/12 11:45:34;;;;;;;;;;;;;;;;;;1540617;28;84963;-93
2021/03/12 11:46:19;;;;;;;;;;;;;;;;;;1542058;28;85328;-94
2021/03/12 11:47:05;;;;;;;;;;;;;;;;;;1542468;28;85289;-93
2021/03/12 11:47:53;;;;;;;;;;;;;;;;;;1544442;28;86790;-93
2021/03/12 11:48:38;;;;;;;;;;;;;;;;;;1543027;28;84119;-93
2021/03/12 11:49:23;;;;;;;;;;;;;;;;;;1543129;28;86650;-93
2021/03/12 11:50:08;;;;;;;;;;;;;;;;;;1543905;28;84437;-93
2021/03/12 11:50:53;;;;;;;;;;;;;;;;;;1541740;28;83995;-93
2021/03/12 11:51:39;;;;;;;;;;;;;;;;;;1541667;28;85647;-93
2021/03/12 11:52:27;;;;;;;;;;;;;;;;;;1543339;28;85696;-94
2021/03/12 11:53:12;;;;;;;;;;;;;;;;;;1541095;28;84147;-94
2021/03/12 11:53:57;;;;;;;;;;;;;;;;;;1540955;28;85340;-95
2021/03/12 11:54:42;;;;;;;;;;;;;;;;;;1543345;28;84912;-95
2021/03/12 11:55:27;;;;;;;;;;;;;;;;;;1541377;28;84652;-94
2021/03/12 11:56:12;;;;;;;;;;;;;;;;;;1544082;28;83579;-94
2021/03/12 11:56:57;;;;;;;;;;;;;;;;;;1543298;28;82943;-95
2021/03/12 11:57:43;;;;;;;;;;;;;;;;;;1541472;28;82991;-93
2021/03/12 11:58:28;;;;;;;;;;;;;;;;;;1541305;28;83255;-94
2021/03/12 11:59:13;;;;;;;;;;;;;;;;;;1543340;28;83348;-94
2021/03/12 11:59:58;;;;;;;;;;;;;;;;;;1540018;28;82852;-93
2021/03/12 12:00:43;;;;;;;;;;;;;;;;;;1540082;28;83901;-93
2021/03/12 12:01:33;;;;;;;;;;;;;;;;;;1537929;28;84366;-94
2021/03/12 12:02:18;;;;;;;;;;;;;;;;;;1537904;28;84775;-93
2021/03/12 12:03:03;;;;;;;;;;;;;;;;;;1539331;28;84522;-94
2021/03/12 12:03:49;;;;;;;;;;;;;;;;;;1541575;28;83407;-94
2021/03/12 12:04:34;;;;;;;;;;;;;;;;;;1541420;28;82880;-94
2021/03/12 12:05:19;;;;;;;;;;;;;;;;;;1541358;28;83479;-93
2021/03/12 12:06:04;;;;;;;;;;;;;;;;;;1543270;28;82923;-94
2021/03/12 12:06:49;;;;;;;;;;;;;;;;;;1541604;28;82906;-93
2021/03/12 12:07:34;;;;;;;;;;;;;;;;;;1541434;28;83034;-94
2021/03/12 12:08:19;;;;;;;;;;;;;;;;;;1543412;28;83457;-94
2021/03/12 12:09:04;;;;;;;;;;;;;;;;;;1540538;28;84877;-94
2021/03/12 12:09:50;;;;;;;;;;;;;;;;;;1547740;28;83438;-94
2021/03/12 12:10:35;;;;;;;;;;;;;;;;;;1549586;28;83441;-94
2021/03/12 12:11:20;;;;;;;;;;;;;;;;;;1552101;28;83557;-94
2021/03/12 12:12:05;;;;;;;;;;;;;;;;;;1547821;28;83363;-94
2021/03/12 12:12:55;;;;;;;;;;;;;;;;;;1548046;28;83152;-94
2021/03/12 12:13:40;;;;;;;;;;;;;;;;;;1553440;28;85439;-95
2021/03/12 12:14:25;;;;;;;;;;;;;;;;;;1554338;28;82878;-93
2021/03/12 12:15:15;;;;;;;;;;;;;;;;;;1545979;28;82972;-94
2021/03/12 12:16:00;;;;;;;;;;;;;;;;;;1538106;28;85881;-93
2021/03/12 12:16:45;;;;;;;;;;;;;;;;;;1537965;28;83445;-94
2021/03/12 12:17:31;;;;;;;;;;;;;;;;;;1540066;28;83168;-94
2021/03/12 12:18:16;;;;;;;;;;;;;;;;;;1537206;28;85012;-94
2021/03/12 12:19:05;;;;;;;;;;;;;;;;;;1543134;28;84869;-94
2021/03/12 12:19:50;;;;;;;;;;;;;;;;;;1547237;28;84618;-94
2021/03/12 12:20:42;;;;;;;;;;;;;;;;;;1547674;28;83769;-94
2021/03/12 12:21:27;;;;;;;;;;;;;;;;;;1552525;28;84635;-93
2021/03/12 12:22:12;;;;;;;;;;;;;;;;;;1551576;28;85903;-92
2021/03/12 12:23:00;;;;;;;;;;;;;;;;;;1543567;28;85055;-94
2021/03/12 12:23:45;;;;;;;;;;;;;;;;;;1535280;28;84095;-96
2021/03/12 12:24:30;;;;;;;;;;;;;;;;;;1535540;28;86207;-94
2021/03/12 12:25:15;;;;;;;;;;;;;;;;;;1535076;28;85119;-94
2021/03/12 12:26:00;;;;;;;;;;;;;;;;;;1535027;28;84663;-94
2021/03/12 12:26:45;;;;;;;;;;;;;;;;;;1541314;28;83609;-94
2021/03/12 12:27:31;;;;;;;;;;;;;;;;;;1544972;28;86172;-94
2021/03/12 12:28:16;;;;;;;;;;;;;;;;;;1542984;28;85009;-94
2021/03/12 12:29:01;;;;;;;;;;;;;;;;;;1550943;28;85028;-95
2021/03/12 12:29:46;;;;;;;;;;;;;;;;;;1547348;28;83495;-94
2021/03/12 12:30:31;;;;;;;;;;;;;;;;;;1543014;28;85925;-94
2021/03/12 12:31:16;;;;;;;;;;;;;;;;;;1545971;28;84649;-93
2021/03/12 12:32:02;;;;;;;;;;;;;;;;;;1549128;28;86178;-93
2021/03/12 12:32:47;;;;;;;;;;;;;;;;;;1547416;28;83772;-94
2021/03/12 12:33:32;;;;;;;;;;;;;;;;;;1549510;28;83895;-93
2021/03/12 12:34:17;;;;;;;;;;;;;;;;;;1549619;28;86046;-94
2021/03/12 12:35:02;;;;;;;;;;;;;;;;;;1547474;28;86232;-94
2021/03/12 12:35:47;;;;;;;;;;;;;;;;;;1550576;28;83983;-94
2021/03/12 12:36:32;;;;;;;;;;;;;;;;;;1549316;28;85401;-93
2021/03/12 12:37:17;;;;;;;;;;;;;;;;;;1547875;28;83867;-94
2021/03/12 12:38:03;;;;;;;;;;;;;;;;;;1548946;28;86157;-95
2021/03/12 12:38:48;;;;;;;;;;;;;;;;;;1551922;28;85053;-94
2021/03/12 12:39:33;;;;;;;;;;;;;;;;;;1547699;28;84411;-94
2021/03/12 12:40:18;;;;;;;;;;;;;;;;;;1549538;28;85148;-93
2021/03/12 12:41:06;;;;;;;;;;;;;;;;;;1549110;28;85594;-94
2021/03/12 12:41:51;;;;;;;;;;;;;;;;;;1547287;28;85172;-94
2021/03/12 12:42:36;;;;;;;;;;;;;;;;;;1549426;28;84441;-94
2021/03/12 12:43:21;;;;;;;;;;;;;;;;;;1549462;28;85716;-94
2021/03/12 12:44:06;;;;;;;;;;;;;;;;;;1547948;28;84310;-93
2021/03/12 12:44:51;;;;;;;;;;;;;;;;;;1549747;28;84114;-94
2021/03/12 12:45:36;;;;;;;;;;;;;;;;;;1549961;28;85263;-94
2021/03/12 12:46:21;;;;;;;;;;;;;;;;;;1548736;28;85446;-93
2021/03/12 12:47:06;;;;;;;;;;;;;;;;;;1551424;28;85675;-94
2021/03/12 12:47:52;;;;;;;;;;;;;;;;;;1551395;28;83943;-93
2021/03/12 12:48:37;;;;;;;;;;;;;;;;;;1549396;28;85547;-93
2021/03/12 12:49:22;;;;;;;;;;;;;;;;;;1551579;28;84916;-93
2021/03/12 12:50:07;;;;;;;;;;;;;;;;;;1551347;28;85481;-92
2021/03/12 12:50:52;;;;;;;;;;;;;;;;;;1549638;28;84363;-93
2021/03/12 12:51:37;;;;;;;;;;;;;;;;;;1551264;28;85354;-94
2021/03/12 12:52:22;;;;;;;;;;;;;;;;;;1551341;28;85048;-94
2021/03/12 12:53:07;;;;;;;;;;;;;;;;;;1549714;28;84424;-92
2021/03/12 12:53:53;;;;;;;;;;;;;;;;;;1551843;28;86629;-94
2021/03/12 12:54:40;;;;;;;;;;;;;;;;;;1551748;28;85061;-92
2021/03/12 12:55:25;;;;;;;;;;;;;;;;;;1549484;28;84361;-94
2021/03/12 12:56:10;;;;;;;;;;;;;;;;;;1551761;28;84136;-93
2021/03/12 12:56:55;;;;;;;;;;;;;;;;;;1551501;28;84995;-93
2021/03/12 12:57:41;;;;;;;;;;;;;;;;;;1550561;28;86532;-94
2021/03/12 12:58:26;;;;;;;;;;;;;;;;;;1555498;28;86471;-93
2021/03/12 12:59:11;;;;;;;;;;;;;;;;;;1556248;28;84158;-92
2021/03/12 12:59:56;;;;;;;;;;;;;;;;;;1553986;28;83998;-93
2021/03/12 13:00:41;;;;;;;;;;;;;;;;;;1558973;28;86604;-93
2021/03/12 13:01:26;;;;;;;;;;;;;;;;;;1554304;28;83089;-92
2021/03/12 13:02:11;;;;;;;;;;;;;;;;;;1551766;28;83231;-92
2021/03/12 13:02:57;;;;;;;;;;;;;;;;;;1551203;28;84599;-93
2021/03/12 13:03:42;;;;;;;;;;;;;;;;;;1551042;28;83462;-93
2021/03/12 13:04:27;;;;;;;;;;;;;;;;;;1549398;28;83648;-93
2021/03/12 13:05:12;;;;;;;;;;;;;;;;;;1551377;28;83404;-93
2021/03/12 13:05:57;;;;;;;;;;;;;;;;;;1550927;28;83390;-94
2021/03/12 13:06:42;;;;;;;;;;;;;;;;;;1549190;28;84647;-92
2021/03/12 13:07:27;;;;;;;;;;;;;;;;;;1551234;28;83489;-92
2021/03/12 13:08:12;;;;;;;;;;;;;;;;;;1546958;28;83752;-93
2021/03/12 13:08:58;;;;;;;;;;;;;;;;;;1550157;28;83679;-93
2021/03/12 13:09:43;;;;;;;;;;;;;;;;;;1550991;28;83485;-93
2021/03/12 13:10:28;;;;;;;;;;;;;;;;;;1551255;28;84106;-93
2021/03/12 13:11:13;;;;;;;;;;;;;;;;;;1549192;28;83456;-93
2021/03/12 13:11:58;;;;;;;;;;;;;;;;;;1551168;28;83723;-92
2021/03/12 13:12:43;;;;;;;;;;;;;;;;;;1540628;28;83432;-94
2021/03/12 13:13:28;;;;;;;;;;;;;;;;;;1542304;28;92756;-92
2021/03/12 13:14:13;;;;;;;;;;;;;;;;;;1543757;28;90744;-93
2021/03/12 13:14:59;;;;;;;;;;;;;;;;;;1543364;28;86877;-94
2021/03/12 13:15:44;;;;;;;;;;;;;;;;;;1541006;28;94102;-93
2021/03/12 13:16:29;;;;;;;;;;;;;;;;;;1543068;28;94933;-94
2021/03/12 13:17:14;;;;;;;;;;;;;;;;;;1542868;28;94900;-92
2021/03/12 13:17:59;;;;;;;;;;;;;;;;;;1535507;28;89235;-92
2021/03/12 13:18:44;;;;;;;;;;;;;;;;;;1539073;28;92824;-92
2021/03/12 13:19:29;;;;;;;;;;;;;;;;;;1538737;28;91606;-93
2021/03/12 13:20:18;;;;;;;;;;;;;;;;;;1541443;28;93498;-93
2021/03/12 13:21:03;;;;;;;;;;;;;;;;;;1543304;28;85792;-93
2021/03/12 13:21:51;;;;;;;;;;;;;;;;;;1548859;28;84179;-92
2021/03/12 13:22:38;;;;;;;;;;;;;;;;;;1543024;28;93169;-92
2021/03/12 13:23:23;;;;;;;;;;;;;;;;;;1543024;28;87336;-92
2021/03/12 13:24:08;;;;;;;;;;;;;;;;;;1542958;28;91464;-92
2021/03/12 13:24:53;;;;;;;;;;;;;;;;;;1540955;28;90685;-92
2021/03/12 13:25:38;;;;;;;;;;;;;;;;;;1543533;28;91459;-93
2021/03/12 13:26:23;;;;;;;;;;;;;;;;;;1543259;28;89762;-92
2021/03/12 13:27:09;;;;;;;;;;;;;;;;;;1540298;28;92517;-91
2021/03/12 13:27:54;;;;;;;;;;;;;;;;;;1542589;28;94439;-93
2021/03/12 13:28:41;;;;;;;;;;;;;;;;;;1543649;28;90372;-93
2021/03/12 13:29:26;;;;;;;;;;;;;;;;;;1535196;28;90051;-93
2021/03/12 13:30:11;;;;;;;;;;;;;;;;;;1539085;28;93311;-92
2021/03/12 13:30:56;;;;;;;;;;;;;;;;;;1543433;28;86312;-92
2021/03/12 13:31:41;;;;;;;;;;;;;;;;;;1541258;28;92850;-93
2021/03/12 13:32:26;;;;;;;;;;;;;;;;;;1542734;28;91424;-92
2021/03/12 13:33:11;;;;;;;;;;;;;;;;;;1543665;28;85619;-93
2021/03/12 13:33:57;;;;;;;;;;;;;;;;;;1538571;28;91592;-94
2021/03/12 13:34:42;;;;;;;;;;;;;;;;;;1545031;28;90888;-93
2021/03/12 13:35:27;;;;;;;;;;;;;;;;;;1545079;28;89379;-93
2021/03/12 13:36:13;;;;;;;;;;;;;;;;;;1544241;28;83833;-93
2021/03/12 13:36:58;;;;;;;;;;;;;;;;;;1548170;28;83866;-93
2021/03/12 13:37:44;;;;;;;;;;;;;;;;;;1550758;28;83903;-91
2021/03/12 13:38:29;;;;;;;;;;;;;;;;;;1547785;28;85939;-92
2021/03/12 13:39:15;;;;;;;;;;;;;;;;;;1546096;28;84836;-93
2021/03/12 13:40:00;;;;;;;;;;;;;;;;;;1545690;28;86039;-92
2021/03/12 13:40:45;;;;;;;;;;;;;;;;;;1544105;28;84948;-92
2021/03/12 13:41:30;;;;;;;;;;;;;;;;;;1541527;28;84856;-92
2021/03/12 13:42:15;;;;;;;;;;;;;;;;;;1545766;28;86079;-93
2021/03/12 13:43:01;;;;;;;;;;;;;;;;;;1543951;28;85298;-94
2021/03/12 13:43:46;;;;;;;;;;;;;;;;;;1538672;28;86854;-92
2021/03/12 13:44:31;;;;;;;;;;;;;;;;;;1539873;28;85100;-92
2021/03/12 13:45:17;;;;;;;;;;;;;;;;;;1539918;28;85016;-92
2021/03/12 13:46:02;;;;;;;;;;;;;;;;;;1535677;28;85735;-93
2021/03/12 13:46:47;;;;;;;;;;;;;;;;;;1542601;28;86989;-92
2021/03/12 13:47:32;;;;;;;;;;;;;;;;;;1539576;28;85229;-92
2021/03/12 13:48:17;;;;;;;;;;;;;;;;;;1536127;28;85085;-94
2021/03/12 13:49:02;;;;;;;;;;;;;;;;;;1539887;28;83098;-93
2021/03/12 13:49:47;;;;;;;;;;;;;;;;;;1539831;28;84429;-94
2021/03/12 13:50:33;;;;;;;;;;;;;;;;;;1535988;28;85050;-93
2021/03/12 13:51:18;;;;;;;;;;;;;;;;;;1539901;28;83971;-93
2021/03/12 13:52:03;;;;;;;;;;;;;;;;;;1539910;28;84694;-93
2021/03/12 13:52:48;;;;;;;;;;;;;;;;;;1542193;28;84664;-93
2021/03/12 13:53:33;;;;;;;;;;;;;;;;;;1546295;28;84586;-93
2021/03/12 13:54:18;;;;;;;;;;;;;;;;;;1543805;28;85348;-93
2021/03/12 13:55:12;;;;;;;;;;;;;;;;;;1541626;28;84249;-94
2021/03/12 13:55:57;;;;;;;;;;;;;;;;;;1546952;28;85354;-93
2021/03/12 13:56:43;;;;;;;;;;;;;;;;;;1543739;28;84953;-93
2021/03/12 13:57:29;;;;;;;;;;;;;;;;;;1541696;28;84380;-94
2021/03/12 13:58:15;;;;;;;;;;;;;;;;;;1533393;28;85242;-94
2021/03/12 13:59:01;;;;;;;;;;;;;;;;;;1543961;28;85923;-93
2021/03/12 13:59:47;;;;;;;;;;;;;;;;;;1545883;28;85656;-93
2021/03/12 14:00:32;;;;;;;;;;;;;;;;;;1542037;28;87472;-93
2021/03/12 14:01:17;;;;;;;;;;;;;;;;;;1543828;28;85721;-93
2021/03/12 14:02:02;;;;;;;;;;;;;;;;;;1539675;28;85637;-92
2021/03/12 14:02:47;;;;;;;;;;;;;;;;;;1535418;28;86507;-92
2021/03/12 14:03:32;;;;;;;;;;;;;;;;;;1538979;28;85753;-93
2021/03/12 14:04:17;;;;;;;;;;;;;;;;;;1539173;28;85173;-93
2021/03/12 14:05:03;;;;;;;;;;;;;;;;;;1544278;28;84303;-93
2021/03/12 14:05:48;;;;;;;;;;;;;;;;;;1545275;28;84083;-93
2021/03/12 14:06:33;;;;;;;;;;;;;;;;;;1543239;28;84275;-93
2021/03/12 14:07:18;;;;;;;;;;;;;;;;;;1541804;28;83722;-93
2021/03/12 14:08:03;;;;;;;;;;;;;;;;;;1544450;28;83423;-93
2021/03/12 14:08:48;;;;;;;;;;;;;;;;;;1541833;28;88939;-93
2021/03/12 14:09:33;;;;;;;;;;;;;;;;;;1539008;28;84308;-93
2021/03/12 14:10:18;;;;;;;;;;;;;;;;;;1543287;28;92591;-93
2021/03/12 14:11:04;;;;;;;;;;;;;;;;;;1542236;28;85067;-93
2021/03/12 14:11:49;;;;;;;;;;;;;;;;;;1539557;28;83824;-94
2021/03/12 14:12:34;;;;;;;;;;;;;;;;;;1544083;28;83890;-93
2021/03/12 14:13:19;;;;;;;;;;;;;;;;;;1543429;28;89985;-94
2021/03/12 14:14:04;;;;;;;;;;;;;;;;;;1540499;28;90854;-93
2021/03/12 14:14:49;;;;;;;;;;;;;;;;;;1544678;28;90028;-93
2021/03/12 14:15:34;;;;;;;;;;;;;;;;;;1542450;28;84801;-94
2021/03/12 14:16:19;;;;;;;;;;;;;;;;;;1539668;28;84116;-93
2021/03/12 14:17:05;;;;;;;;;;;;;;;;;;1544436;28;94033;-93
2021/03/12 14:17:51;;;;;;;;;;;;;;;;;;1541362;28;88325;-92
2021/03/12 14:18:36;;;;;;;;;;;;;;;;;;1539493;28;84351;-93
2021/03/12 14:19:23;;;;;;;;;;;;;;;;;;1543712;28;83594;-94
2021/03/12 14:20:08;;;;;;;;;;;;;;;;;;1542482;28;85067;-93
2021/03/12 14:20:54;;;;;;;;;;;;;;;;;;1539916;28;83580;-93
2021/03/12 14:21:39;;;;;;;;;;;;;;;;;;1547130;28;83274;-92
2021/03/12 14:22:24;;;;;;;;;;;;;;;;;;1544226;28;83546;-92
2021/03/12 14:23:09;;;;;;;;;;;;;;;;;;1543462;28;84508;-91
2021/03/12 14:23:54;;;;;;;;;;;;;;;;;;1546302;28;83048;-93
2021/03/12 14:24:39;;;;;;;;;;;;;;;;;;1544975;28;83335;-92
2021/03/12 14:25:24;;;;;;;;;;;;;;;;;;1542741;28;83620;-91
2021/03/12 14:26:09;;;;;;;;;;;;;;;;;;1545502;28;85813;-92
2021/03/12 14:26:55;;;;;;;;;;;;;;;;;;1547656;28;84737;-92
2021/03/12 14:27:40;;;;;;;;;;;;;;;;;;1544002;28;85685;-92
2021/03/12 14:28:27;;;;;;;;;;;;;;;;;;1547329;28;85287;-92
2021/03/12 14:29:12;;;;;;;;;;;;;;;;;;1545112;28;84697;-92
2021/03/12 14:29:57;;;;;;;;;;;;;;;;;;1541531;28;83733;-93
2021/03/12 14:30:42;;;;;;;;;;;;;;;;;;1545865;28;84995;-92
2021/03/12 14:31:27;;;;;;;;;;;;;;;;;;1543153;28;85034;-93
2021/03/12 14:32:14;;;;;;;;;;;;;;;;;;1541205;28;84927;-94
2021/03/12 14:32:59;;;;;;;;;;;;;;;;;;1545425;28;83996;-92
2021/03/12 14:33:44;;;;;;;;;;;;;;;;;;1543091;28;83681;-91
2021/03/12 14:34:29;;;;;;;;;;;;;;;;;;1541018;28;86101;-92
2021/03/12 14:35:14;;;;;;;;;;;;;;;;;;1545048;28;85978;-92
2021/03/12 14:35:59;;;;;;;;;;;;;;;;;;1545048;28;85726;-93
2021/03/12 14:36:45;;;;;;;;;;;;;;;;;;1541127;28;83395;-93
2021/03/12 14:37:30;;;;;;;;;;;;;;;;;;1544816;28;84829;-92
2021/03/12 14:38:15;;;;;;;;;;;;;;;;;;1539518;28;85059;-93
2021/03/12 14:39:00;;;;;;;;;;;;;;;;;;1547342;28;86330;-93
2021/03/12 14:39:45;;;;;;;;;;;;;;;;;;1556253;28;86125;-92
2021/03/12 14:40:30;;;;;;;;;;;;;;;;;;1551370;28;85027;-92
2021/03/12 14:41:15;;;;;;;;;;;;;;;;;;1550955;28;85013;-94
2021/03/12 14:42:01;;;;;;;;;;;;;;;;;;1555224;28;84702;-92
2021/03/12 14:42:46;;;;;;;;;;;;;;;;;;1551857;28;84940;-92
2021/03/12 14:43:31;;;;;;;;;;;;;;;;;;1549351;28;83866;-92
2021/03/12 14:44:16;;;;;;;;;;;;;;;;;;1551622;28;84815;-94
2021/03/12 14:45:01;;;;;;;;;;;;;;;;;;1557614;28;84767;-93
2021/03/12 14:45:47;;;;;;;;;;;;;;;;;;1556473;28;85022;-92
2021/03/12 14:46:32;;;;;;;;;;;;;;;;;;1558858;28;83649;-91
2021/03/12 14:47:17;;;;;;;;;;;;;;;;;;1558504;28;83839;-91
2021/03/12 14:48:02;;;;;;;;;;;;;;;;;;1560018;28;83480;-92
2021/03/12 14:48:47;;;;;;;;;;;;;;;;;;1558239;28;84283;-92
2021/03/12 14:49:33;;;;;;;;;;;;;;;;;;1557861;28;85621;-92
2021/03/12 14:50:18;;;;;;;;;;;;;;;;;;1546536;28;85559;-92
2021/03/12 14:51:03;;;;;;;;;;;;;;;;;;1548430;28;86688;-92
2021/03/12 14:51:48;;;;;;;;;;;;;;;;;;1548520;28;85152;-92
2021/03/12 14:52:33;;;;;;;;;;;;;;;;;;1546977;28;86792;-92
2021/03/12 14:53:19;;;;;;;;;;;;;;;;;;1548992;28;86659;-93
2021/03/12 14:54:04;;;;;;;;;;;;;;;;;;1542660;28;85142;-92
2021/03/12 14:54:49;;;;;;;;;;;;;;;;;;1540824;28;85701;-93
2021/03/12 14:55:34;;;;;;;;;;;;;;;;;;1544076;28;85445;-92
2021/03/12 14:56:19;;;;;;;;;;;;;;;;;;1549007;28;84353;-92
2021/03/12 14:57:04;;;;;;;;;;;;;;;;;;1546303;28;84975;-92
2021/03/12 14:57:49;;;;;;;;;;;;;;;;;;1548218;28;85208;-92
2021/03/12 14:58:35;;;;;;;;;;;;;;;;;;1549066;28;87044;-92
2021/03/12 14:59:20;;;;;;;;;;;;;;;;;;1545874;28;85955;-91
2021/03/12 15:00:05;;;;;;;;;;;;;;;;;;1539315;28;86104;-92
2021/03/12 15:00:50;;;;;;;;;;;;;;;;;;1542878;28;86490;-92
2021/03/12 15:01:35;;;;;;;;;;;;;;;;;;1543823;28;85615;-92
2021/03/12 15:02:20;;;;;;;;;;;;;;;;;;1546477;28;85332;-93
2021/03/12 15:03:06;;;;;;;;;;;;;;;;;;1548740;28;85814;-92
2021/03/12 15:03:51;;;;;;;;;;;;;;;;;;1548672;28;85331;-91
2021/03/12 15:04:36;;;;;;;;;;;;;;;;;;1546884;28;86538;-92
2021/03/12 15:05:21;;;;;;;;;;;;;;;;;;1548890;28;85180;-93
2021/03/12 15:06:06;;;;;;;;;;;;;;;;;;1548971;28;86946;-92
2021/03/12 15:06:51;;;;;;;;;;;;;;;;;;1546718;28;85416;-92
2021/03/12 15:07:36;;;;;;;;;;;;;;;;;;1536607;28;84283;-93
2021/03/12 15:08:21;;;;;;;;;;;;;;;;;;1538553;28;85030;-91
2021/03/12 15:09:07;;;;;;;;;;;;;;;;;;1542121;28;85478;-92
2021/03/12 15:09:52;;;;;;;;;;;;;;;;;;1542821;28;83259;-92
